sensor_id;sensor_type;location;lat;lon;timestamp;P1;durP1;ratioP1;P2;durP2;ratioP2
8480;SDS011;4277;51.354;6.740;2023-02-03T00:01:15;18.70;;;13.53;;
8480;SDS011;4277;51.354;6.740;2023-02-03T00:03:41;19.37;;;13.77;;
8480;SDS011;4277;51.354;6.740;2023-02-03T00:06:07;19.03;;;12.67;;
8480;SDS011;4277;51.354;6.740;2023-02-03T00:08:34;18.43;;;11.83;;
8480;SDS011;4277;51.354;6.740;2023-02-03T00:11:00;17.70;;;12.93;;
8480;SDS011;4277;51.354;6.740;2023-02-03T00:13:26;16.43;;;12.97;;
8480;SDS011;4277;51.354;6.740;2023-02-03T00:15:52;19.10;;;12.77;;
8480;SDS011;4277;51.354;6.740;2023-02-03T00:18:18;19.70;;;12.60;;
8480;SDS011;4277;51.354;6.740;2023-02-03T00:20:44;19.60;;;13.03;;
8480;SDS011;4277;51.354;6.740;2023-02-03T00:23:10;15.90;;;12.23;;
8480;SDS011;4277;51.354;6.740;2023-02-03T00:25:36;22.30;;;13.27;;
8480;SDS011;4277;51.354;6.740;2023-02-03T00:28:03;19.53;;;11.83;;
8480;SDS011;4277;51.354;6.740;2023-02-03T00:30:29;16.53;;;11.93;;
8480;SDS011;4277;51.354;6.740;2023-02-03T00:32:56;19.23;;;11.40;;
8480;SDS011;4277;51.354;6.740;2023-02-03T00:35:22;16.53;;;11.40;;
8480;SDS011;4277;51.354;6.740;2023-02-03T00:37:51;18.47;;;11.17;;
8480;SDS011;4277;51.354;6.740;2023-02-03T00:40:17;16.90;;;11.80;;
8480;SDS011;4277;51.354;6.740;2023-02-03T00:42:43;16.37;;;11.73;;
8480;SDS011;4277;51.354;6.740;2023-02-03T00:45:09;18.17;;;11.40;;
8480;SDS011;4277;51.354;6.740;2023-02-03T00:47:35;13.70;;;10.27;;
8480;SDS011;4277;51.354;6.740;2023-02-03T00:50:01;16.63;;;10.67;;
8480;SDS011;4277;51.354;6.740;2023-02-03T00:52:27;16.77;;;10.80;;
8480;SDS011;4277;51.354;6.740;2023-02-03T00:54:53;17.50;;;10.73;;
8480;SDS011;4277;51.354;6.740;2023-02-03T00:57:19;16.07;;;11.03;;
8480;SDS011;4277;51.354;6.740;2023-02-03T00:59:45;15.83;;;10.27;;
8480;SDS011;4277;51.354;6.740;2023-02-03T01:02:11;14.90;;;10.53;;
8480;SDS011;4277;51.354;6.740;2023-02-03T01:04:37;17.23;;;12.00;;
8480;SDS011;4277;51.354;6.740;2023-02-03T01:07:03;16.73;;;11.27;;
8480;SDS011;4277;51.354;6.740;2023-02-03T01:09:32;17.67;;;12.53;;
8480;SDS011;4277;51.354;6.740;2023-02-03T01:11:58;16.33;;;11.50;;
8480;SDS011;4277;51.354;6.740;2023-02-03T01:14:24;18.23;;;11.60;;
8480;SDS011;4277;51.354;6.740;2023-02-03T01:16:50;21.20;;;11.17;;
8480;SDS011;4277;51.354;6.740;2023-02-03T01:19:16;18.17;;;10.47;;
8480;SDS011;4277;51.354;6.740;2023-02-03T01:21:42;14.87;;;10.37;;
8480;SDS011;4277;51.354;6.740;2023-02-03T01:24:08;16.37;;;9.73;;
8480;SDS011;4277;51.354;6.740;2023-02-03T01:26:34;13.33;;;9.33;;
8480;SDS011;4277;51.354;6.740;2023-02-03T01:29:00;13.00;;;8.90;;
8480;SDS011;4277;51.354;6.740;2023-02-03T01:31:27;16.60;;;9.13;;
8480;SDS011;4277;51.354;6.740;2023-02-03T01:33:54;16.53;;;8.87;;
8480;SDS011;4277;51.354;6.740;2023-02-03T01:36:21;14.33;;;8.63;;
8480;SDS011;4277;51.354;6.740;2023-02-03T01:38:47;12.60;;;8.93;;
8480;SDS011;4277;51.354;6.740;2023-02-03T01:41:15;13.77;;;9.20;;
8480;SDS011;4277;51.354;6.740;2023-02-03T01:43:43;15.33;;;8.93;;
8480;SDS011;4277;51.354;6.740;2023-02-03T01:46:16;15.07;;;8.50;;
8480;SDS011;4277;51.354;6.740;2023-02-03T01:48:43;16.03;;;8.27;;
8480;SDS011;4277;51.354;6.740;2023-02-03T01:51:09;19.07;;;8.93;;
8480;SDS011;4277;51.354;6.740;2023-02-03T01:53:35;13.60;;;8.30;;
8480;SDS011;4277;51.354;6.740;2023-02-03T01:56:03;13.60;;;7.93;;
8480;SDS011;4277;51.354;6.740;2023-02-03T01:58:30;10.23;;;7.50;;
8480;SDS011;4277;51.354;6.740;2023-02-03T02:00:57;11.93;;;7.63;;
8480;SDS011;4277;51.354;6.740;2023-02-03T02:03:24;10.47;;;7.47;;
8480;SDS011;4277;51.354;6.740;2023-02-03T02:05:53;13.53;;;7.73;;
8480;SDS011;4277;51.354;6.740;2023-02-03T02:08:20;10.97;;;8.00;;
8480;SDS011;4277;51.354;6.740;2023-02-03T02:10:47;11.77;;;7.70;;
8480;SDS011;4277;51.354;6.740;2023-02-03T02:13:12;13.43;;;7.83;;
8480;SDS011;4277;51.354;6.740;2023-02-03T02:15:43;12.70;;;7.97;;
8480;SDS011;4277;51.354;6.740;2023-02-03T02:29:15;11.93;;;7.30;;
8480;SDS011;4277;51.354;6.740;2023-02-03T02:34:07;13.10;;;7.60;;
8480;SDS011;4277;51.354;6.740;2023-02-03T02:39:21;8.10;;;6.40;;
8480;SDS011;4277;51.354;6.740;2023-02-03T02:42:14;8.93;;;7.00;;
8480;SDS011;4277;51.354;6.740;2023-02-03T02:44:40;12.43;;;6.60;;
8480;SDS011;4277;51.354;6.740;2023-02-03T02:47:20;7.53;;;5.80;;
8480;SDS011;4277;51.354;6.740;2023-02-03T02:49:57;15.20;;;6.30;;
8480;SDS011;4277;51.354;6.740;2023-02-03T02:52:28;10.07;;;6.40;;
8480;SDS011;4277;51.354;6.740;2023-02-03T02:54:56;10.93;;;6.73;;
8480;SDS011;4277;51.354;6.740;2023-02-03T02:57:26;10.47;;;6.20;;
8480;SDS011;4277;51.354;6.740;2023-02-03T02:59:55;6.90;;;5.60;;
8480;SDS011;4277;51.354;6.740;2023-02-03T03:02:20;10.93;;;6.13;;
8480;SDS011;4277;51.354;6.740;2023-02-03T03:04:46;12.40;;;6.60;;
8480;SDS011;4277;51.354;6.740;2023-02-03T03:07:15;9.10;;;6.57;;
8480;SDS011;4277;51.354;6.740;2023-02-03T03:09:56;10.10;;;6.40;;
8480;SDS011;4277;51.354;6.740;2023-02-03T03:12:36;10.33;;;6.60;;
8480;SDS011;4277;51.354;6.740;2023-02-03T03:15:10;10.33;;;6.57;;
8480;SDS011;4277;51.354;6.740;2023-02-03T03:17:45;11.60;;;6.40;;
8480;SDS011;4277;51.354;6.740;2023-02-03T03:20:21;10.47;;;6.53;;
8480;SDS011;4277;51.354;6.740;2023-02-03T03:22:51;11.73;;;6.50;;
8480;SDS011;4277;51.354;6.740;2023-02-03T03:25:23;10.73;;;6.40;;
8480;SDS011;4277;51.354;6.740;2023-02-03T03:28:01;10.40;;;6.33;;
8480;SDS011;4277;51.354;6.740;2023-02-03T03:30:32;12.87;;;6.30;;
8480;SDS011;4277;51.354;6.740;2023-02-03T03:32:59;11.77;;;6.53;;
8480;SDS011;4277;51.354;6.740;2023-02-03T03:35:27;9.10;;;5.87;;
8480;SDS011;4277;51.354;6.740;2023-02-03T03:38:04;10.27;;;6.03;;
8480;SDS011;4277;51.354;6.740;2023-02-03T03:40:37;12.63;;;6.37;;
8480;SDS011;4277;51.354;6.740;2023-02-03T03:43:09;10.53;;;6.30;;
8480;SDS011;4277;51.354;6.740;2023-02-03T03:45:48;8.73;;;6.47;;
8480;SDS011;4277;51.354;6.740;2023-02-03T03:48:25;11.57;;;6.77;;
8480;SDS011;4277;51.354;6.740;2023-02-03T03:50:58;12.03;;;6.40;;
8480;SDS011;4277;51.354;6.740;2023-02-03T03:53:29;11.30;;;5.77;;
8480;SDS011;4277;51.354;6.740;2023-02-03T03:55:59;12.40;;;5.70;;
8480;SDS011;4277;51.354;6.740;2023-02-03T03:58:29;8.47;;;5.57;;
8480;SDS011;4277;51.354;6.740;2023-02-03T04:00:56;7.50;;;5.47;;
8480;SDS011;4277;51.354;6.740;2023-02-03T04:03:27;11.00;;;6.17;;
8480;SDS011;4277;51.354;6.740;2023-02-03T04:06:01;11.17;;;6.10;;
8480;SDS011;4277;51.354;6.740;2023-02-03T04:08:27;10.67;;;5.50;;
8480;SDS011;4277;51.354;6.740;2023-02-03T04:10:53;10.13;;;5.30;;
8480;SDS011;4277;51.354;6.740;2023-02-03T04:13:18;9.20;;;5.20;;
8480;SDS011;4277;51.354;6.740;2023-02-03T04:15:44;11.23;;;5.20;;
8480;SDS011;4277;51.354;6.740;2023-02-03T04:18:14;9.43;;;4.90;;
8480;SDS011;4277;51.354;6.740;2023-02-03T04:20:40;9.83;;;4.70;;
8480;SDS011;4277;51.354;6.740;2023-02-03T04:23:07;8.83;;;4.90;;
8480;SDS011;4277;51.354;6.740;2023-02-03T04:25:33;8.00;;;4.67;;
8480;SDS011;4277;51.354;6.740;2023-02-03T04:27:59;12.63;;;5.60;;
8480;SDS011;4277;51.354;6.740;2023-02-03T04:30:24;9.60;;;4.90;;
8480;SDS011;4277;51.354;6.740;2023-02-03T04:32:50;8.87;;;4.70;;
8480;SDS011;4277;51.354;6.740;2023-02-03T04:35:16;7.37;;;4.27;;
8480;SDS011;4277;51.354;6.740;2023-02-03T04:37:41;8.53;;;4.57;;
8480;SDS011;4277;51.354;6.740;2023-02-03T04:40:07;8.73;;;4.40;;
8480;SDS011;4277;51.354;6.740;2023-02-03T04:42:35;11.10;;;4.83;;
8480;SDS011;4277;51.354;6.740;2023-02-03T04:45:02;7.37;;;4.33;;
8480;SDS011;4277;51.354;6.740;2023-02-03T04:47:29;8.27;;;4.43;;
8480;SDS011;4277;51.354;6.740;2023-02-03T04:49:54;9.77;;;4.47;;
8480;SDS011;4277;51.354;6.740;2023-02-03T04:52:20;8.43;;;4.30;;
8480;SDS011;4277;51.354;6.740;2023-02-03T04:54:45;7.87;;;4.00;;
8480;SDS011;4277;51.354;6.740;2023-02-03T04:57:11;8.47;;;3.83;;
8480;SDS011;4277;51.354;6.740;2023-02-03T04:59:36;7.10;;;4.10;;
8480;SDS011;4277;51.354;6.740;2023-02-03T05:02:02;7.97;;;3.67;;
8480;SDS011;4277;51.354;6.740;2023-02-03T05:04:28;8.03;;;3.73;;
8480;SDS011;4277;51.354;6.740;2023-02-03T05:06:54;6.67;;;3.30;;
8480;SDS011;4277;51.354;6.740;2023-02-03T05:09:20;7.17;;;3.47;;
8480;SDS011;4277;51.354;6.740;2023-02-03T05:11:46;6.07;;;3.60;;
8480;SDS011;4277;51.354;6.740;2023-02-03T05:14:11;8.83;;;3.50;;
8480;SDS011;4277;51.354;6.740;2023-02-03T05:16:37;6.80;;;3.43;;
8480;SDS011;4277;51.354;6.740;2023-02-03T05:19:02;9.87;;;3.80;;
8480;SDS011;4277;51.354;6.740;2023-02-03T05:21:28;7.23;;;3.23;;
8480;SDS011;4277;51.354;6.740;2023-02-03T05:23:53;5.43;;;3.20;;
8480;SDS011;4277;51.354;6.740;2023-02-03T05:26:19;9.90;;;3.37;;
8480;SDS011;4277;51.354;6.740;2023-02-03T05:28:45;7.33;;;3.30;;
8480;SDS011;4277;51.354;6.740;2023-02-03T05:31:10;7.53;;;3.30;;
8480;SDS011;4277;51.354;6.740;2023-02-03T05:33:36;8.80;;;3.33;;
8480;SDS011;4277;51.354;6.740;2023-02-03T05:36:01;5.70;;;3.33;;
8480;SDS011;4277;51.354;6.740;2023-02-03T05:38:27;8.83;;;3.10;;
8480;SDS011;4277;51.354;6.740;2023-02-03T05:40:52;11.00;;;3.33;;
8480;SDS011;4277;51.354;6.740;2023-02-03T05:43:36;7.30;;;3.00;;
8480;SDS011;4277;51.354;6.740;2023-02-03T05:46:03;6.30;;;3.00;;
8480;SDS011;4277;51.354;6.740;2023-02-03T05:48:30;9.50;;;3.20;;
8480;SDS011;4277;51.354;6.740;2023-02-03T05:50:56;6.50;;;2.63;;
8480;SDS011;4277;51.354;6.740;2023-02-03T05:53:21;5.33;;;2.60;;
8480;SDS011;4277;51.354;6.740;2023-02-03T05:55:47;5.57;;;2.63;;
8480;SDS011;4277;51.354;6.740;2023-02-03T05:58:13;5.17;;;2.80;;
8480;SDS011;4277;51.354;6.740;2023-02-03T06:00:39;8.83;;;2.90;;
8480;SDS011;4277;51.354;6.740;2023-02-03T06:03:04;8.57;;;2.47;;
8480;SDS011;4277;51.354;6.740;2023-02-03T06:05:31;7.77;;;2.80;;
8480;SDS011;4277;51.354;6.740;2023-02-03T06:07:58;6.10;;;2.50;;
8480;SDS011;4277;51.354;6.740;2023-02-03T06:10:24;6.83;;;2.90;;
8480;SDS011;4277;51.354;6.740;2023-02-03T06:12:50;6.90;;;2.60;;
8480;SDS011;4277;51.354;6.740;2023-02-03T06:15:16;5.83;;;2.47;;
8480;SDS011;4277;51.354;6.740;2023-02-03T06:17:45;5.43;;;2.30;;
8480;SDS011;4277;51.354;6.740;2023-02-03T06:20:13;8.10;;;2.47;;
8480;SDS011;4277;51.354;6.740;2023-02-03T06:22:40;8.27;;;2.30;;
8480;SDS011;4277;51.354;6.740;2023-02-03T06:25:06;5.13;;;2.33;;
8480;SDS011;4277;51.354;6.740;2023-02-03T06:27:32;6.03;;;2.60;;
8480;SDS011;4277;51.354;6.740;2023-02-03T06:29:57;7.27;;;2.73;;
8480;SDS011;4277;51.354;6.740;2023-02-03T06:32:23;6.97;;;2.50;;
8480;SDS011;4277;51.354;6.740;2023-02-03T06:34:49;5.73;;;2.60;;
8480;SDS011;4277;51.354;6.740;2023-02-03T06:37:14;10.70;;;3.77;;
8480;SDS011;4277;51.354;6.740;2023-02-03T06:39:40;5.80;;;2.40;;
8480;SDS011;4277;51.354;6.740;2023-02-03T06:42:05;5.50;;;2.60;;
8480;SDS011;4277;51.354;6.740;2023-02-03T06:44:31;7.57;;;2.10;;
8480;SDS011;4277;51.354;6.740;2023-02-03T06:46:57;4.73;;;2.10;;
8480;SDS011;4277;51.354;6.740;2023-02-03T06:49:23;6.13;;;2.50;;
8480;SDS011;4277;51.354;6.740;2023-02-03T06:51:48;5.83;;;2.47;;
8480;SDS011;4277;51.354;6.740;2023-02-03T06:54:14;4.63;;;2.10;;
8480;SDS011;4277;51.354;6.740;2023-02-03T06:56:39;8.03;;;2.40;;
8480;SDS011;4277;51.354;6.740;2023-02-03T06:59:05;6.80;;;2.60;;
8480;SDS011;4277;51.354;6.740;2023-02-03T07:01:32;5.43;;;2.20;;
8480;SDS011;4277;51.354;6.740;2023-02-03T07:03:58;6.73;;;2.60;;
8480;SDS011;4277;51.354;6.740;2023-02-03T07:06:24;7.40;;;2.30;;
8480;SDS011;4277;51.354;6.740;2023-02-03T07:08:58;5.53;;;2.30;;
8480;SDS011;4277;51.354;6.740;2023-02-03T07:11:25;6.50;;;2.40;;
8480;SDS011;4277;51.354;6.740;2023-02-03T07:13:51;7.30;;;2.27;;
8480;SDS011;4277;51.354;6.740;2023-02-03T07:16:16;7.73;;;2.50;;
8480;SDS011;4277;51.354;6.740;2023-02-03T07:18:42;7.87;;;2.60;;
8480;SDS011;4277;51.354;6.740;2023-02-03T07:21:08;5.57;;;2.23;;
8480;SDS011;4277;51.354;6.740;2023-02-03T07:23:33;7.60;;;2.77;;
8480;SDS011;4277;51.354;6.740;2023-02-03T07:25:59;8.37;;;2.60;;
8480;SDS011;4277;51.354;6.740;2023-02-03T07:28:26;7.43;;;2.90;;
8480;SDS011;4277;51.354;6.740;2023-02-03T07:30:52;5.90;;;2.67;;
8480;SDS011;4277;51.354;6.740;2023-02-03T07:33:18;6.67;;;2.30;;
8480;SDS011;4277;51.354;6.740;2023-02-03T07:35:50;6.30;;;2.50;;
8480;SDS011;4277;51.354;6.740;2023-02-03T07:38:19;6.07;;;2.40;;
8480;SDS011;4277;51.354;6.740;2023-02-03T07:40:45;7.93;;;2.47;;
8480;SDS011;4277;51.354;6.740;2023-02-03T07:43:11;7.50;;;2.67;;
8480;SDS011;4277;51.354;6.740;2023-02-03T07:45:36;6.73;;;2.80;;
8480;SDS011;4277;51.354;6.740;2023-02-03T07:48:02;7.93;;;2.63;;
8480;SDS011;4277;51.354;6.740;2023-02-03T07:50:27;3.90;;;1.90;;
8480;SDS011;4277;51.354;6.740;2023-02-03T07:52:53;5.10;;;2.10;;
8480;SDS011;4277;51.354;6.740;2023-02-03T07:55:19;10.70;;;2.70;;
8480;SDS011;4277;51.354;6.740;2023-02-03T07:57:46;6.63;;;2.47;;
8480;SDS011;4277;51.354;6.740;2023-02-03T08:00:12;9.27;;;2.60;;
8480;SDS011;4277;51.354;6.740;2023-02-03T08:02:40;5.63;;;2.13;;
8480;SDS011;4277;51.354;6.740;2023-02-03T08:05:07;8.57;;;2.33;;
8480;SDS011;4277;51.354;6.740;2023-02-03T08:07:33;5.17;;;2.40;;
8480;SDS011;4277;51.354;6.740;2023-02-03T08:09:59;5.43;;;2.40;;
8480;SDS011;4277;51.354;6.740;2023-02-03T08:12:24;7.20;;;2.60;;
8480;SDS011;4277;51.354;6.740;2023-02-03T08:14:50;7.57;;;2.40;;
8480;SDS011;4277;51.354;6.740;2023-02-03T08:17:15;6.93;;;2.70;;
8480;SDS011;4277;51.354;6.740;2023-02-03T08:19:41;8.73;;;3.03;;
8480;SDS011;4277;51.354;6.740;2023-02-03T08:22:07;6.77;;;2.70;;
8480;SDS011;4277;51.354;6.740;2023-02-03T08:24:32;5.60;;;2.80;;
8480;SDS011;4277;51.354;6.740;2023-02-03T08:26:59;4.23;;;2.53;;
8480;SDS011;4277;51.354;6.740;2023-02-03T08:29:25;6.17;;;2.93;;
8480;SDS011;4277;51.354;6.740;2023-02-03T08:31:50;8.77;;;3.00;;
8480;SDS011;4277;51.354;6.740;2023-02-03T08:34:16;6.23;;;2.90;;
8480;SDS011;4277;51.354;6.740;2023-02-03T08:36:41;5.30;;;3.00;;
8480;SDS011;4277;51.354;6.740;2023-02-03T08:39:08;8.27;;;3.03;;
8480;SDS011;4277;51.354;6.740;2023-02-03T08:41:33;5.83;;;3.20;;
8480;SDS011;4277;51.354;6.740;2023-02-03T08:43:59;9.80;;;3.63;;
8480;SDS011;4277;51.354;6.740;2023-02-03T08:46:25;5.40;;;3.07;;
8480;SDS011;4277;51.354;6.740;2023-02-03T08:48:52;6.13;;;3.10;;
8480;SDS011;4277;51.354;6.740;2023-02-03T08:51:20;5.47;;;3.00;;
8480;SDS011;4277;51.354;6.740;2023-02-03T08:53:45;5.17;;;3.23;;
8480;SDS011;4277;51.354;6.740;2023-02-03T08:56:11;7.70;;;3.50;;
8480;SDS011;4277;51.354;6.740;2023-02-03T08:58:37;5.30;;;3.37;;
8480;SDS011;4277;51.354;6.740;2023-02-03T09:03:39;7.33;;;3.83;;
8480;SDS011;4277;51.354;6.740;2023-02-03T09:06:05;5.73;;;3.43;;
8480;SDS011;4277;51.354;6.740;2023-02-03T09:08:31;6.07;;;3.63;;
8480;SDS011;4277;51.354;6.740;2023-02-03T09:10:57;8.13;;;3.77;;
8480;SDS011;4277;51.354;6.740;2023-02-03T09:13:23;3.97;;;3.57;;
8480;SDS011;4277;51.354;6.740;2023-02-03T09:15:48;9.57;;;4.60;;
8480;SDS011;4277;51.354;6.740;2023-02-03T09:18:14;8.13;;;3.83;;
8480;SDS011;4277;51.354;6.740;2023-02-03T09:20:40;6.77;;;4.00;;
8480;SDS011;4277;51.354;6.740;2023-02-03T09:23:05;7.70;;;3.90;;
8480;SDS011;4277;51.354;6.740;2023-02-03T09:25:31;7.20;;;4.53;;
8480;SDS011;4277;51.354;6.740;2023-02-03T09:27:57;5.47;;;4.27;;
8480;SDS011;4277;51.354;6.740;2023-02-03T09:30:25;7.93;;;4.40;;
8480;SDS011;4277;51.354;6.740;2023-02-03T09:32:52;8.97;;;4.60;;
8480;SDS011;4277;51.354;6.740;2023-02-03T09:35:19;7.43;;;4.60;;
8480;SDS011;4277;51.354;6.740;2023-02-03T09:37:45;7.17;;;4.60;;
8480;SDS011;4277;51.354;6.740;2023-02-03T09:40:18;8.97;;;4.83;;
8480;SDS011;4277;51.354;6.740;2023-02-03T09:45:24;6.17;;;4.37;;
8480;SDS011;4277;51.354;6.740;2023-02-03T09:47:52;8.33;;;4.87;;
8480;SDS011;4277;51.354;6.740;2023-02-03T09:50:21;10.63;;;4.83;;
8480;SDS011;4277;51.354;6.740;2023-02-03T09:52:50;10.17;;;4.70;;
8480;SDS011;4277;51.354;6.740;2023-02-03T09:55:32;9.87;;;5.20;;
8480;SDS011;4277;51.354;6.740;2023-02-03T09:58:10;6.53;;;4.73;;
8480;SDS011;4277;51.354;6.740;2023-02-03T10:01:10;8.30;;;4.77;;
8480;SDS011;4277;51.354;6.740;2023-02-03T10:03:44;8.27;;;4.90;;
8480;SDS011;4277;51.354;6.740;2023-02-03T10:06:37;6.97;;;5.40;;
8480;SDS011;4277;51.354;6.740;2023-02-03T10:14:52;6.03;;;5.00;;
8480;SDS011;4277;51.354;6.740;2023-02-03T10:17:30;7.97;;;4.97;;
8480;SDS011;4277;51.354;6.740;2023-02-03T10:20:04;8.83;;;5.87;;
8480;SDS011;4277;51.354;6.740;2023-02-03T10:22:35;10.00;;;5.50;;
8480;SDS011;4277;51.354;6.740;2023-02-03T10:27:44;8.77;;;5.10;;
8480;SDS011;4277;51.354;6.740;2023-02-03T10:30:17;8.93;;;5.07;;
8480;SDS011;4277;51.354;6.740;2023-02-03T10:32:43;11.63;;;5.40;;
8480;SDS011;4277;51.354;6.740;2023-02-03T10:35:12;10.33;;;5.37;;
8480;SDS011;4277;51.354;6.740;2023-02-03T10:37:46;9.53;;;5.17;;
8480;SDS011;4277;51.354;6.740;2023-02-03T10:40:14;7.43;;;5.00;;
8480;SDS011;4277;51.354;6.740;2023-02-03T10:42:41;8.47;;;4.97;;
8480;SDS011;4277;51.354;6.740;2023-02-03T10:45:30;8.60;;;5.10;;
8480;SDS011;4277;51.354;6.740;2023-02-03T10:48:01;7.57;;;4.90;;
8480;SDS011;4277;51.354;6.740;2023-02-03T10:50:28;8.10;;;5.00;;
8480;SDS011;4277;51.354;6.740;2023-02-03T10:55:41;6.20;;;4.67;;
8480;SDS011;4277;51.354;6.740;2023-02-03T10:58:10;7.10;;;4.93;;
8480;SDS011;4277;51.354;6.740;2023-02-03T11:00:40;8.83;;;4.67;;
8480;SDS011;4277;51.354;6.740;2023-02-03T11:05:41;8.23;;;4.87;;
8480;SDS011;4277;51.354;6.740;2023-02-03T11:08:13;8.97;;;4.97;;
8480;SDS011;4277;51.354;6.740;2023-02-03T11:10:40;7.50;;;4.17;;
8480;SDS011;4277;51.354;6.740;2023-02-03T11:13:11;10.30;;;4.60;;
8480;SDS011;4277;51.354;6.740;2023-02-03T11:21:13;6.70;;;4.10;;
8480;SDS011;4277;51.354;6.740;2023-02-03T11:23:43;10.03;;;4.30;;
8480;SDS011;4277;51.354;6.740;2023-02-03T11:26:11;10.70;;;4.37;;
8480;SDS011;4277;51.354;6.740;2023-02-03T11:28:42;11.10;;;4.00;;
8480;SDS011;4277;51.354;6.740;2023-02-03T11:31:17;5.23;;;3.70;;
8480;SDS011;4277;51.354;6.740;2023-02-03T11:34:09;6.33;;;3.80;;
8480;SDS011;4277;51.354;6.740;2023-02-03T11:36:41;6.27;;;3.43;;
8480;SDS011;4277;51.354;6.740;2023-02-03T11:39:07;7.50;;;3.17;;
8480;SDS011;4277;51.354;6.740;2023-02-03T11:41:35;8.50;;;2.90;;
8480;SDS011;4277;51.354;6.740;2023-02-03T11:44:09;7.67;;;3.10;;
8480;SDS011;4277;51.354;6.740;2023-02-03T11:46:36;9.97;;;3.37;;
8480;SDS011;4277;51.354;6.740;2023-02-03T11:49:05;9.43;;;3.00;;
8480;SDS011;4277;51.354;6.740;2023-02-03T11:51:55;8.57;;;2.83;;
8480;SDS011;4277;51.354;6.740;2023-02-03T11:54:47;7.07;;;3.13;;
8480;SDS011;4277;51.354;6.740;2023-02-03T12:03:03;7.30;;;2.90;;
8480;SDS011;4277;51.354;6.740;2023-02-03T12:05:57;9.53;;;3.40;;
8480;SDS011;4277;51.354;6.740;2023-02-03T12:08:47;5.33;;;2.50;;
8480;SDS011;4277;51.354;6.740;2023-02-03T12:14:21;9.10;;;3.20;;
8480;SDS011;4277;51.354;6.740;2023-02-03T12:22:42;9.00;;;3.70;;
8480;SDS011;4277;51.354;6.740;2023-02-03T12:25:47;5.00;;;2.83;;
8480;SDS011;4277;51.354;6.740;2023-02-03T12:31:22;9.23;;;3.57;;
8480;SDS011;4277;51.354;6.740;2023-02-03T12:34:09;11.13;;;3.90;;
8480;SDS011;4277;51.354;6.740;2023-02-03T12:36:41;7.20;;;3.27;;
8480;SDS011;4277;51.354;6.740;2023-02-03T12:39:18;6.33;;;3.10;;
8480;SDS011;4277;51.354;6.740;2023-02-03T12:42:00;10.17;;;3.70;;
8480;SDS011;4277;51.354;6.740;2023-02-03T12:44:32;9.60;;;3.47;;
8480;SDS011;4277;51.354;6.740;2023-02-03T12:47:17;12.20;;;3.77;;
8480;SDS011;4277;51.354;6.740;2023-02-03T12:49:56;13.10;;;3.60;;
8480;SDS011;4277;51.354;6.740;2023-02-03T12:52:34;7.93;;;3.70;;
8480;SDS011;4277;51.354;6.740;2023-02-03T13:00:18;6.13;;;3.67;;
8480;SDS011;4277;51.354;6.740;2023-02-03T13:05:36;8.87;;;4.00;;
8480;SDS011;4277;51.354;6.740;2023-02-03T13:08:10;9.27;;;4.20;;
8480;SDS011;4277;51.354;6.740;2023-02-03T13:10:56;10.37;;;4.30;;
8480;SDS011;4277;51.354;6.740;2023-02-03T13:13:28;10.17;;;4.43;;
8480;SDS011;4277;51.354;6.740;2023-02-03T13:15:57;12.13;;;4.30;;
8480;SDS011;4277;51.354;6.740;2023-02-03T13:18:30;9.40;;;4.13;;
8480;SDS011;4277;51.354;6.740;2023-02-03T13:20:57;9.97;;;4.20;;
8480;SDS011;4277;51.354;6.740;2023-02-03T13:23:24;9.03;;;4.30;;
8480;SDS011;4277;51.354;6.740;2023-02-03T13:38:19;8.70;;;3.80;;
8480;SDS011;4277;51.354;6.740;2023-02-03T13:41:05;8.23;;;3.27;;
8480;SDS011;4277;51.354;6.740;2023-02-03T13:43:36;8.00;;;3.97;;
8480;SDS011;4277;51.354;6.740;2023-02-03T13:46:04;8.73;;;4.13;;
8480;SDS011;4277;51.354;6.740;2023-02-03T13:48:31;6.67;;;3.73;;
8480;SDS011;4277;51.354;6.740;2023-02-03T13:51:42;9.53;;;3.80;;
8480;SDS011;4277;51.354;6.740;2023-02-03T13:53:47;6.63;;;3.67;;
8480;SDS011;4277;51.354;6.740;2023-02-03T13:56:20;8.40;;;4.30;;
8480;SDS011;4277;51.354;6.740;2023-02-03T13:59:26;7.37;;;4.03;;
8480;SDS011;4277;51.354;6.740;2023-02-03T14:01:55;9.17;;;4.40;;
8480;SDS011;4277;51.354;6.740;2023-02-03T14:09:46;7.43;;;4.33;;
8480;SDS011;4277;51.354;6.740;2023-02-03T14:12:16;9.47;;;4.70;;
8480;SDS011;4277;51.354;6.740;2023-02-03T14:14:43;8.77;;;4.63;;
8480;SDS011;4277;51.354;6.740;2023-02-03T14:19:54;7.60;;;3.93;;
8480;SDS011;4277;51.354;6.740;2023-02-03T14:22:20;8.80;;;4.00;;
8480;SDS011;4277;51.354;6.740;2023-02-03T14:24:46;10.23;;;4.17;;
8480;SDS011;4277;51.354;6.740;2023-02-03T14:27:16;9.87;;;3.90;;
8480;SDS011;4277;51.354;6.740;2023-02-03T14:29:43;11.53;;;5.63;;
8480;SDS011;4277;51.354;6.740;2023-02-03T14:32:10;14.43;;;6.23;;
8480;SDS011;4277;51.354;6.740;2023-02-03T14:34:37;13.67;;;5.17;;
8480;SDS011;4277;51.354;6.740;2023-02-03T14:37:11;8.63;;;4.00;;
8480;SDS011;4277;51.354;6.740;2023-02-03T14:44:58;8.57;;;4.40;;
8480;SDS011;4277;51.354;6.740;2023-02-03T14:55:22;6.80;;;3.10;;
8480;SDS011;4277;51.354;6.740;2023-02-03T14:57:50;12.40;;;5.10;;
8480;SDS011;4277;51.354;6.740;2023-02-03T15:07:54;11.73;;;3.50;;
8480;SDS011;4277;51.354;6.740;2023-02-03T15:10:20;11.50;;;4.30;;
8480;SDS011;4277;51.354;6.740;2023-02-03T15:12:48;9.93;;;4.20;;
8480;SDS011;4277;51.354;6.740;2023-02-03T15:15:21;14.23;;;4.33;;
8480;SDS011;4277;51.354;6.740;2023-02-03T15:17:52;18.00;;;5.40;;
8480;SDS011;4277;51.354;6.740;2023-02-03T15:20:37;14.67;;;4.93;;
8480;SDS011;4277;51.354;6.740;2023-02-03T15:23:21;14.13;;;4.93;;
8480;SDS011;4277;51.354;6.740;2023-02-03T15:25:57;15.00;;;4.93;;
8480;SDS011;4277;51.354;6.740;2023-02-03T15:28:24;15.20;;;4.70;;
8480;SDS011;4277;51.354;6.740;2023-02-03T15:31:01;16.10;;;4.60;;
8480;SDS011;4277;51.354;6.740;2023-02-03T15:33:30;19.90;;;4.80;;
8480;SDS011;4277;51.354;6.740;2023-02-03T15:35:58;16.67;;;4.73;;
8480;SDS011;4277;51.354;6.740;2023-02-03T15:38:28;13.67;;;4.90;;
8480;SDS011;4277;51.354;6.740;2023-02-03T15:40:55;15.93;;;5.33;;
8480;SDS011;4277;51.354;6.740;2023-02-03T15:45:53;19.00;;;6.13;;
8480;SDS011;4277;51.354;6.740;2023-02-03T15:50:55;24.10;;;9.70;;
8480;SDS011;4277;51.354;6.740;2023-02-03T15:53:29;21.00;;;8.10;;
8480;SDS011;4277;51.354;6.740;2023-02-03T15:55:58;17.50;;;6.07;;
8480;SDS011;4277;51.354;6.740;2023-02-03T15:58:26;20.40;;;5.57;;
8480;SDS011;4277;51.354;6.740;2023-02-03T16:00:53;17.33;;;5.30;;
8480;SDS011;4277;51.354;6.740;2023-02-03T16:03:21;20.07;;;5.43;;
8480;SDS011;4277;51.354;6.740;2023-02-03T16:05:48;18.90;;;4.70;;
8480;SDS011;4277;51.354;6.740;2023-02-03T16:08:24;17.70;;;5.30;;
8480;SDS011;4277;51.354;6.740;2023-02-03T16:10:52;21.20;;;5.93;;
8480;SDS011;4277;51.354;6.740;2023-02-03T16:13:27;19.40;;;5.23;;
8480;SDS011;4277;51.354;6.740;2023-02-03T16:18:55;18.87;;;5.67;;
8480;SDS011;4277;51.354;6.740;2023-02-03T16:24:26;22.33;;;6.27;;
8480;SDS011;4277;51.354;6.740;2023-02-03T16:27:17;17.87;;;4.90;;
8480;SDS011;4277;51.354;6.740;2023-02-03T16:29:41;20.07;;;5.40;;
8480;SDS011;4277;51.354;6.740;2023-02-03T16:32:26;20.10;;;5.27;;
8480;SDS011;4277;51.354;6.740;2023-02-03T16:35:11;21.33;;;5.20;;
8480;SDS011;4277;51.354;6.740;2023-02-03T16:37:55;16.97;;;4.60;;
8480;SDS011;4277;51.354;6.740;2023-02-03T16:40:48;20.87;;;4.30;;
8480;SDS011;4277;51.354;6.740;2023-02-03T16:43:32;19.33;;;4.50;;
8480;SDS011;4277;51.354;6.740;2023-02-03T16:46:17;15.90;;;5.00;;
8480;SDS011;4277;51.354;6.740;2023-02-03T16:49:01;21.10;;;5.33;;
8480;SDS011;4277;51.354;6.740;2023-02-03T16:51:46;15.83;;;4.80;;
8480;SDS011;4277;51.354;6.740;2023-02-03T16:54:13;14.87;;;5.33;;
8480;SDS011;4277;51.354;6.740;2023-02-03T16:56:39;14.30;;;5.57;;
8480;SDS011;4277;51.354;6.740;2023-02-03T16:59:05;17.37;;;6.07;;
8480;SDS011;4277;51.354;6.740;2023-02-03T17:01:31;15.43;;;5.40;;
8480;SDS011;4277;51.354;6.740;2023-02-03T17:03:57;15.47;;;4.83;;
8480;SDS011;4277;51.354;6.740;2023-02-03T17:06:23;20.67;;;4.80;;
8480;SDS011;4277;51.354;6.740;2023-02-03T17:08:49;14.67;;;4.53;;
8480;SDS011;4277;51.354;6.740;2023-02-03T17:11:19;17.77;;;4.77;;
8480;SDS011;4277;51.354;6.740;2023-02-03T17:13:46;12.90;;;4.33;;
8480;SDS011;4277;51.354;6.740;2023-02-03T17:16:13;13.30;;;3.90;;
8480;SDS011;4277;51.354;6.740;2023-02-03T17:18:40;15.57;;;4.47;;
8480;SDS011;4277;51.354;6.740;2023-02-03T17:21:08;15.50;;;4.40;;